sensor_id;sensor_type;location;lat;lon;timestamp;pressure;altitude;pressure_sealevel;temperature;humidity
26087;BME280;13851;43.434;28.338;2022-12-05T00:01:26;101257.66;;;5.71;100.00
26087;BME280;13851;43.434;28.338;2022-12-05T00:03:54;101267.84;;;5.81;100.00
26087;BME280;13851;43.434;28.338;2022-12-05T00:06:22;101120.22;;;4.97;100.00
26087;BME280;13851;43.434;28.338;2022-12-05T00:08:48;101239.22;;;5.64;100.00
26087;BME280;13851;43.434;28.338;2022-12-05T00:11:17;101263.91;;;5.85;100.00
26087;BME280;13851;43.434;28.338;2022-12-05T00:13:43;101241.59;;;5.68;100.00
26087;BME280;13851;43.434;28.338;2022-12-05T00:16:11;101269.88;;;5.90;100.00
26087;BME280;13851;43.434;28.338;2022-12-05T00:18:37;101214.06;;;5.49;100.00
26087;BME280;13851;43.434;28.338;2022-12-05T00:21:03;101263.75;;;5.75;100.00
26087;BME280;13851;43.434;28.338;2022-12-05T00:23:29;101267.38;;;5.87;100.00
26087;BME280;13851;43.434;28.338;2022-12-05T00:25:54;101262.69;;;5.65;100.00
26087;BME280;13851;43.434;28.338;2022-12-05T00:28:20;101246.22;;;5.79;100.00
26087;BME280;13851;43.434;28.338;2022-12-05T00:30:45;101242.84;;;5.76;100.00
26087;BME280;13851;43.434;28.338;2022-12-05T00:33:10;101270.94;;;6.00;100.00
26087;BME280;13851;43.434;28.338;2022-12-05T00:35:36;101277.88;;;6.04;100.00
26087;BME280;13851;43.434;28.338;2022-12-05T00:38:02;101276.00;;;6.05;100.00
26087;BME280;13851;43.434;28.338;2022-12-05T00:40:27;101226.91;;;5.82;100.00
26087;BME280;13851;43.434;28.338;2022-12-05T00:42:53;101206.25;;;5.68;100.00
26087;BME280;13851;43.434;28.338;2022-12-05T00:45:18;101272.94;;;6.09;100.00
26087;BME280;13851;43.434;28.338;2022-12-05T00:47:44;101255.09;;;5.81;100.00
26087;BME280;13851;43.434;28.338;2022-12-05T00:50:09;101300.94;;;5.98;100.00
26087;BME280;13851;43.434;28.338;2022-12-05T00:52:35;101115.75;;;5.20;100.00
26087;BME280;13851;43.434;28.338;2022-12-05T00:55:00;101244.06;;;5.95;100.00
26087;BME280;13851;43.434;28.338;2022-12-05T00:57:26;101269.97;;;6.12;100.00
26087;BME280;13851;43.434;28.338;2022-12-05T00:59:51;101286.56;;;6.20;100.00
26087;BME280;13851;43.434;28.338;2022-12-05T01:02:17;101299.22;;;6.33;100.00
26087;BME280;13851;43.434;28.338;2022-12-05T01:04:42;101297.25;;;6.35;100.00
26087;BME280;13851;43.434;28.338;2022-12-05T01:07:08;101318.91;;;6.36;100.00
26087;BME280;13851;43.434;28.338;2022-12-05T01:09:34;101291.19;;;6.42;100.00
26087;BME280;13851;43.434;28.338;2022-12-05T01:11:59;100972.91;;;4.58;100.00
26087;BME280;13851;43.434;28.338;2022-12-05T01:14:25;101032.88;;;4.90;100.00
26087;BME280;13851;43.434;28.338;2022-12-05T01:16:53;101291.56;;;6.38;100.00
26087;BME280;13851;43.434;28.338;2022-12-05T01:19:23;101284.25;;;6.38;100.00
26087;BME280;13851;43.434;28.338;2022-12-05T01:21:49;101258.66;;;6.30;100.00
26087;BME280;13851;43.434;28.338;2022-12-05T01:24:16;101258.94;;;6.14;100.00
26087;BME280;13851;43.434;28.338;2022-12-05T01:26:42;101278.81;;;6.49;100.00
26087;BME280;13851;43.434;28.338;2022-12-05T01:29:08;101278.47;;;6.54;100.00
26087;BME280;13851;43.434;28.338;2022-12-05T01:31:35;101254.84;;;6.08;100.00
26087;BME280;13851;43.434;28.338;2022-12-05T01:34:03;101284.78;;;6.55;100.00
26087;BME280;13851;43.434;28.338;2022-12-05T01:36:29;100923.53;;;4.42;100.00
26087;BME280;13851;43.434;28.338;2022-12-05T01:38:56;101241.69;;;6.26;100.00
26087;BME280;13851;43.434;28.338;2022-12-05T01:41:27;101223.47;;;6.15;100.00
26087;BME280;13851;43.434;28.338;2022-12-05T01:43:58;101251.94;;;6.34;100.00
26087;BME280;13851;43.434;28.338;2022-12-05T01:46:26;101256.44;;;6.35;100.00
26087;BME280;13851;43.434;28.338;2022-12-05T01:48:55;101288.63;;;6.52;100.00
26087;BME280;13851;43.434;28.338;2022-12-05T01:51:24;101223.72;;;6.12;100.00
26087;BME280;13851;43.434;28.338;2022-12-05T01:53:50;101234.66;;;6.35;100.00
26087;BME280;13851;43.434;28.338;2022-12-05T01:56:16;101201.47;;;6.18;100.00
26087;BME280;13851;43.434;28.338;2022-12-05T01:58:43;101223.19;;;6.07;100.00
26087;BME280;13851;43.434;28.338;2022-12-05T02:01:11;101184.63;;;6.02;100.00
26087;BME280;13851;43.434;28.338;2022-12-05T02:03:39;101253.09;;;6.42;100.00
26087;BME280;13851;43.434;28.338;2022-12-05T02:06:08;101222.13;;;6.21;100.00
26087;BME280;13851;43.434;28.338;2022-12-05T02:08:34;101237.38;;;6.35;100.00
26087;BME280;13851;43.434;28.338;2022-12-05T02:11:00;101235.75;;;6.32;100.00
26087;BME280;13851;43.434;28.338;2022-12-05T02:16:10;101218.34;;;6.35;100.00
26087;BME280;13851;43.434;28.338;2022-12-05T02:26:58;101241.19;;;6.32;100.00
26087;BME280;13851;43.434;28.338;2022-12-05T02:34:59;101204.66;;;6.01;100.00
26087;BME280;13851;43.434;28.338;2022-12-05T02:37:33;100981.56;;;4.63;100.00
26087;BME280;13851;43.434;28.338;2022-12-05T02:40:18;101202.63;;;5.92;100.00
26087;BME280;13851;43.434;28.338;2022-12-05T02:45:19;101218.97;;;6.03;100.00
26087;BME280;13851;43.434;28.338;2022-12-05T02:47:53;101237.94;;;6.16;100.00
26087;BME280;13851;43.434;28.338;2022-12-05T02:50:24;101222.22;;;6.08;100.00
26087;BME280;13851;43.434;28.338;2022-12-05T02:52:53;101033.91;;;5.01;100.00
26087;BME280;13851;43.434;28.338;2022-12-05T02:55:21;101244.41;;;6.26;100.00
26087;BME280;13851;43.434;28.338;2022-12-05T02:57:52;101253.16;;;6.18;100.00
26087;BME280;13851;43.434;28.338;2022-12-05T03:00:19;101267.78;;;6.29;100.00
26087;BME280;13851;43.434;28.338;2022-12-05T03:02:44;101260.09;;;6.22;100.00
26087;BME280;13851;43.434;28.338;2022-12-05T03:05:18;101020.66;;;4.85;100.00
26087;BME280;13851;43.434;28.338;2022-12-05T03:07:48;101273.50;;;6.37;100.00
26087;BME280;13851;43.434;28.338;2022-12-05T03:10:21;101267.56;;;6.43;100.00
26087;BME280;13851;43.434;28.338;2022-12-05T03:12:55;101246.13;;;6.27;100.00
26087;BME280;13851;43.434;28.338;2022-12-05T03:15:27;101264.09;;;6.41;100.00
26087;BME280;13851;43.434;28.338;2022-12-05T03:18:44;101204.59;;;5.90;100.00
26087;BME280;13851;43.434;28.338;2022-12-05T03:23:50;101269.78;;;6.49;100.00
26087;BME280;13851;43.434;28.338;2022-12-05T03:35:12;101262.47;;;6.38;100.00
26087;BME280;13851;43.434;28.338;2022-12-05T03:42:51;100977.66;;;4.67;100.00
26087;BME280;13851;43.434;28.338;2022-12-05T03:45:23;100948.97;;;4.52;100.00
26087;BME280;13851;43.434;28.338;2022-12-05T03:50:38;101272.25;;;6.30;100.00
26087;BME280;13851;43.434;28.338;2022-12-05T03:53:17;101221.59;;;6.05;100.00
26087;BME280;13851;43.434;28.338;2022-12-05T03:55:49;101017.72;;;4.88;100.00
26087;BME280;13851;43.434;28.338;2022-12-05T03:58:26;101254.53;;;6.24;100.00
26087;BME280;13851;43.434;28.338;2022-12-05T04:00:55;101241.25;;;6.08;100.00
26087;BME280;13851;43.434;28.338;2022-12-05T04:03:29;101269.28;;;6.33;100.00
26087;BME280;13851;43.434;28.338;2022-12-05T04:06:07;101264.81;;;6.20;100.00
26087;BME280;13851;43.434;28.338;2022-12-05T04:08:39;101275.56;;;6.22;100.00
26087;BME280;13851;43.434;28.338;2022-12-05T04:11:18;101272.25;;;6.30;100.00
26087;BME280;13851;43.434;28.338;2022-12-05T04:13:51;101206.84;;;5.96;100.00
26087;BME280;13851;43.434;28.338;2022-12-05T04:16:24;101263.81;;;6.21;100.00
26087;BME280;13851;43.434;28.338;2022-12-05T04:21:50;101270.91;;;6.35;100.00
26087;BME280;13851;43.434;28.338;2022-12-05T04:24:26;101262.91;;;6.10;100.00
26087;BME280;13851;43.434;28.338;2022-12-05T04:27:30;101040.00;;;4.80;100.00
26087;BME280;13851;43.434;28.338;2022-12-05T04:35:19;101253.38;;;6.04;100.00
26087;BME280;13851;43.434;28.338;2022-12-05T04:37:50;101254.69;;;5.98;100.00
26087;BME280;13851;43.434;28.338;2022-12-05T04:40:20;101265.00;;;6.06;100.00
26087;BME280;13851;43.434;28.338;2022-12-05T04:42:51;101247.53;;;5.97;100.00
26087;BME280;13851;43.434;28.338;2022-12-05T04:45:19;101247.88;;;5.93;100.00
26087;BME280;13851;43.434;28.338;2022-12-05T04:47:51;101271.69;;;6.13;100.00
26087;BME280;13851;43.434;28.338;2022-12-05T04:50:20;101271.28;;;5.95;100.00
26087;BME280;13851;43.434;28.338;2022-12-05T04:52:49;100965.63;;;4.35;100.00
26087;BME280;13851;43.434;28.338;2022-12-05T04:55:20;101241.69;;;5.91;100.00
26087;BME280;13851;43.434;28.338;2022-12-05T04:58:09;101275.69;;;6.20;100.00
26087;BME280;13851;43.434;28.338;2022-12-05T05:01:04;101227.53;;;5.74;100.00
26087;BME280;13851;43.434;28.338;2022-12-05T05:03:39;101296.94;;;6.15;100.00
26087;BME280;13851;43.434;28.338;2022-12-05T05:06:07;101261.69;;;5.90;100.00
26087;BME280;13851;43.434;28.338;2022-12-05T05:08:34;101254.81;;;5.97;100.00
26087;BME280;13851;43.434;28.338;2022-12-05T05:11:15;101269.34;;;5.85;100.00
26087;BME280;13851;43.434;28.338;2022-12-05T05:13:41;101276.88;;;6.05;100.00
26087;BME280;13851;43.434;28.338;2022-12-05T05:16:12;101267.72;;;6.06;100.00
26087;BME280;13851;43.434;28.338;2022-12-05T05:18:38;101276.41;;;6.11;100.00
26087;BME280;13851;43.434;28.338;2022-12-05T05:21:03;101237.69;;;5.84;100.00
26087;BME280;13851;43.434;28.338;2022-12-05T05:23:29;101260.78;;;6.02;100.00
26087;BME280;13851;43.434;28.338;2022-12-05T05:25:55;101266.00;;;6.05;100.00
26087;BME280;13851;43.434;28.338;2022-12-05T05:28:21;101247.03;;;5.92;100.00
26087;BME280;13851;43.434;28.338;2022-12-05T05:30:47;101277.25;;;6.12;100.00
26087;BME280;13851;43.434;28.338;2022-12-05T05:33:13;101248.66;;;5.95;100.00
26087;BME280;13851;43.434;28.338;2022-12-05T05:35:39;101245.16;;;5.93;100.00
26087;BME280;13851;43.434;28.338;2022-12-05T05:38:04;101266.03;;;6.16;100.00
26087;BME280;13851;43.434;28.338;2022-12-05T05:40:30;101292.28;;;6.29;100.00
26087;BME280;13851;43.434;28.338;2022-12-05T05:42:56;101291.47;;;6.04;100.00
26087;BME280;13851;43.434;28.338;2022-12-05T05:45:24;101234.50;;;5.90;100.00
26087;BME280;13851;43.434;28.338;2022-12-05T05:47:49;101301.41;;;6.16;100.00
26087;BME280;13851;43.434;28.338;2022-12-05T05:50:15;101286.56;;;6.20;100.00
26087;BME280;13851;43.434;28.338;2022-12-05T05:52:41;101298.47;;;6.31;100.00
26087;BME280;13851;43.434;28.338;2022-12-05T05:55:07;101257.72;;;6.07;100.00
26087;BME280;13851;43.434;28.338;2022-12-05T05:57:35;101005.28;;;4.61;100.00
26087;BME280;13851;43.434;28.338;2022-12-05T06:00:04;101285.06;;;6.16;100.00
26087;BME280;13851;43.434;28.338;2022-12-05T06:02:34;101017.84;;;4.62;100.00
26087;BME280;13851;43.434;28.338;2022-12-05T06:05:03;101235.78;;;5.97;100.00
26087;BME280;13851;43.434;28.338;2022-12-05T06:07:28;101262.78;;;6.11;100.00
26087;BME280;13851;43.434;28.338;2022-12-05T06:09:54;101285.34;;;6.24;100.00
26087;BME280;13851;43.434;28.338;2022-12-05T06:12:20;101304.06;;;6.40;100.00
26087;BME280;13851;43.434;28.338;2022-12-05T06:14:49;101308.41;;;6.43;100.00
26087;BME280;13851;43.434;28.338;2022-12-05T06:17:15;101311.25;;;6.41;100.00
26087;BME280;13851;43.434;28.338;2022-12-05T06:19:41;101298.22;;;6.34;100.00
26087;BME280;13851;43.434;28.338;2022-12-05T06:22:06;101034.31;;;4.72;100.00
26087;BME280;13851;43.434;28.338;2022-12-05T06:24:32;101254.00;;;6.08;100.00
26087;BME280;13851;43.434;28.338;2022-12-05T06:26:58;101286.41;;;6.11;100.00
26087;BME280;13851;43.434;28.338;2022-12-05T06:29:23;101290.16;;;6.21;100.00
26087;BME280;13851;43.434;28.338;2022-12-05T06:31:48;101324.00;;;6.41;100.00
26087;BME280;13851;43.434;28.338;2022-12-05T06:34:14;101304.16;;;6.28;100.00
26087;BME280;13851;43.434;28.338;2022-12-05T06:36:40;101311.72;;;6.35;100.00
26087;BME280;13851;43.434;28.338;2022-12-05T06:39:05;101260.56;;;6.05;100.00
26087;BME280;13851;43.434;28.338;2022-12-05T06:41:31;101295.25;;;6.25;100.00
26087;BME280;13851;43.434;28.338;2022-12-05T06:43:57;101280.84;;;6.12;100.00
26087;BME280;13851;43.434;28.338;2022-12-05T06:46:24;101331.03;;;6.43;100.00
26087;BME280;13851;43.434;28.338;2022-12-05T06:48:55;101342.06;;;6.42;100.00
26087;BME280;13851;43.434;28.338;2022-12-05T06:51:21;101297.19;;;6.23;100.00
26087;BME280;13851;43.434;28.338;2022-12-05T06:53:47;101091.72;;;5.03;100.00
26087;BME280;13851;43.434;28.338;2022-12-05T06:56:14;101292.03;;;6.20;100.00
26087;BME280;13851;43.434;28.338;2022-12-05T06:58:42;101356.19;;;6.47;100.00
26087;BME280;13851;43.434;28.338;2022-12-05T07:01:12;101336.00;;;6.49;100.00
26087;BME280;13851;43.434;28.338;2022-12-05T07:03:57;101092.63;;;5.14;100.00
26087;BME280;13851;43.434;28.338;2022-12-05T07:06:23;101297.13;;;6.36;100.00
26087;BME280;13851;43.434;28.338;2022-12-05T07:08:49;101323.75;;;6.55;100.00
26087;BME280;13851;43.434;28.338;2022-12-05T07:11:14;101316.69;;;6.41;100.00
26087;BME280;13851;43.434;28.338;2022-12-05T07:13:40;101325.41;;;6.22;100.00
26087;BME280;13851;43.434;28.338;2022-12-05T07:16:06;101299.09;;;6.34;100.00
26087;BME280;13851;43.434;28.338;2022-12-05T07:18:31;101252.25;;;6.07;100.00
26087;BME280;13851;43.434;28.338;2022-12-05T07:20:59;101333.69;;;6.56;100.00
26087;BME280;13851;43.434;28.338;2022-12-05T07:23:25;101305.53;;;6.33;100.00
26087;BME280;13851;43.434;28.338;2022-12-05T07:25:51;101324.41;;;6.59;100.00
26087;BME280;13851;43.434;28.338;2022-12-05T07:28:17;101231.13;;;5.99;100.00
26087;BME280;13851;43.434;28.338;2022-12-05T07:30:43;101306.16;;;6.37;100.00
26087;BME280;13851;43.434;28.338;2022-12-05T07:33:08;101063.09;;;4.86;100.00
26087;BME280;13851;43.434;28.338;2022-12-05T07:35:34;101315.53;;;6.33;100.00
26087;BME280;13851;43.434;28.338;2022-12-05T07:37:59;101312.97;;;6.42;100.00
26087;BME280;13851;43.434;28.338;2022-12-05T07:40:25;101254.25;;;6.05;100.00
26087;BME280;13851;43.434;28.338;2022-12-05T07:42:50;101299.72;;;6.38;100.00
26087;BME280;13851;43.434;28.338;2022-12-05T07:45:18;101332.19;;;6.52;100.00
26087;BME280;13851;43.434;28.338;2022-12-05T07:47:44;101324.53;;;6.57;100.00
26087;BME280;13851;43.434;28.338;2022-12-05T07:50:10;101311.81;;;6.22;100.00
26087;BME280;13851;43.434;28.338;2022-12-05T07:52:35;101308.75;;;6.38;100.00
26087;BME280;13851;43.434;28.338;2022-12-05T07:55:00;101336.28;;;6.69;100.00
26087;BME280;13851;43.434;28.338;2022-12-05T07:57:30;101137.34;;;5.57;100.00
26087;BME280;13851;43.434;28.338;2022-12-05T07:59:56;101355.09;;;6.61;100.00
26087;BME280;13851;43.434;28.338;2022-12-05T08:02:21;101323.66;;;6.68;100.00
26087;BME280;13851;43.434;28.338;2022-12-05T08:04:47;101319.81;;;6.70;100.00
26087;BME280;13851;43.434;28.338;2022-12-05T08:07:13;101327.28;;;6.91;100.00
26087;BME280;13851;43.434;28.338;2022-12-05T08:09:38;101352.78;;;7.01;100.00
26087;BME280;13851;43.434;28.338;2022-12-05T08:12:04;101324.81;;;6.88;100.00
26087;BME280;13851;43.434;28.338;2022-12-05T08:14:29;101357.16;;;7.15;100.00
26087;BME280;13851;43.434;28.338;2022-12-05T08:16:55;101319.72;;;7.06;100.00
26087;BME280;13851;43.434;28.338;2022-12-05T08:19:20;101296.47;;;7.01;100.00
26087;BME280;13851;43.434;28.338;2022-12-05T08:21:47;101255.31;;;6.60;100.00
26087;BME280;13851;43.434;28.338;2022-12-05T08:24:13;101164.13;;;6.32;100.00
26087;BME280;13851;43.434;28.338;2022-12-05T08:26:39;101225.28;;;6.61;100.00
26087;BME280;13851;43.434;28.338;2022-12-05T08:29:10;101341.69;;;7.38;100.00
26087;BME280;13851;43.434;28.338;2022-12-05T08:31:45;101340.31;;;7.32;100.00
26087;BME280;13851;43.434;28.338;2022-12-05T08:34:15;101342.53;;;7.38;100.00
26087;BME280;13851;43.434;28.338;2022-12-05T08:36:41;101341.91;;;7.46;100.00
26087;BME280;13851;43.434;28.338;2022-12-05T08:39:07;101254.47;;;6.93;100.00
26087;BME280;13851;43.434;28.338;2022-12-05T08:41:36;101101.78;;;6.06;100.00
26087;BME280;13851;43.434;28.338;2022-12-05T08:44:04;101076.94;;;5.99;100.00
26087;BME280;13851;43.434;28.338;2022-12-05T08:46:35;101351.06;;;7.45;100.00
26087;BME280;13851;43.434;28.338;2022-12-05T08:49:05;101338.94;;;7.26;100.00
26087;BME280;13851;43.434;28.338;2022-12-05T08:51:30;101277.38;;;7.24;100.00
26087;BME280;13851;43.434;28.338;2022-12-05T08:53:56;101333.06;;;7.65;100.00
26087;BME280;13851;43.434;28.338;2022-12-05T08:56:23;101314.22;;;7.62;100.00
26087;BME280;13851;43.434;28.338;2022-12-05T08:58:48;101334.44;;;7.70;100.00
26087;BME280;13851;43.434;28.338;2022-12-05T09:01:19;101309.88;;;7.70;100.00
26087;BME280;13851;43.434;28.338;2022-12-05T09:03:45;101215.94;;;7.20;100.00
26087;BME280;13851;43.434;28.338;2022-12-05T09:06:19;101368.59;;;7.86;100.00
26087;BME280;13851;43.434;28.338;2022-12-05T09:08:46;101306.53;;;7.67;100.00
26087;BME280;13851;43.434;28.338;2022-12-05T09:11:15;101320.22;;;7.88;100.00
26087;BME280;13851;43.434;28.338;2022-12-05T09:13:40;101278.38;;;7.66;100.00
26087;BME280;13851;43.434;28.338;2022-12-05T09:16:07;101171.00;;;7.03;100.00
26087;BME280;13851;43.434;28.338;2022-12-05T09:18:33;101343.41;;;7.93;100.00
26087;BME280;13851;43.434;28.338;2022-12-05T09:21:04;101308.28;;;8.00;100.00
26087;BME280;13851;43.434;28.338;2022-12-05T09:23:30;101288.63;;;7.85;100.00
26087;BME280;13851;43.434;28.338;2022-12-05T09:25:56;101026.78;;;6.47;100.00
26087;BME280;13851;43.434;28.338;2022-12-05T09:28:26;101292.69;;;7.91;100.00
26087;BME280;13851;43.434;28.338;2022-12-05T09:30:58;101236.06;;;7.83;100.00
26087;BME280;13851;43.434;28.338;2022-12-05T09:33:27;101301.25;;;8.18;100.00
26087;BME280;13851;43.434;28.338;2022-12-05T09:35:53;101294.38;;;8.24;100.00
26087;BME280;13851;43.434;28.338;2022-12-05T09:38:19;101253.41;;;8.14;100.00
26087;BME280;13851;43.434;28.338;2022-12-05T09:40:44;101271.75;;;8.12;100.00
26087;BME280;13851;43.434;28.338;2022-12-05T09:49:13;101236.19;;;8.23;100.00
26087;BME280;13851;43.434;28.338;2022-12-05T09:51:42;101293.16;;;8.49;100.00
26087;BME280;13851;43.434;28.338;2022-12-05T09:54:10;101249.94;;;8.54;100.00
26087;BME280;13851;43.434;28.338;2022-12-05T09:56:37;101201.72;;;8.22;100.00
26087;BME280;13851;43.434;28.338;2022-12-05T09:59:03;101235.81;;;8.49;100.00
26087;BME280;13851;43.434;28.338;2022-12-05T10:01:40;101259.34;;;8.61;100.00
26087;BME280;13851;43.434;28.338;2022-12-05T10:09:56;101220.84;;;8.43;100.00
26087;BME280;13851;43.434;28.338;2022-12-05T10:12:52;101243.13;;;8.69;100.00
26087;BME280;13851;43.434;28.338;2022-12-05T10:15:37;101151.72;;;8.22;100.00
26087;BME280;13851;43.434;28.338;2022-12-05T10:18:18;101063.38;;;7.71;100.00
26087;BME280;13851;43.434;28.338;2022-12-05T10:21:08;101244.47;;;8.84;100.00
26087;BME280;13851;43.434;28.338;2022-12-05T10:23:57;101234.59;;;8.93;100.00
26087;BME280;13851;43.434;28.338;2022-12-05T10:26:27;101183.47;;;8.74;100.00
26087;BME280;13851;43.434;28.338;2022-12-05T10:31:24;101200.06;;;8.82;100.00
26087;BME280;13851;43.434;28.338;2022-12-05T10:34:02;101209.16;;;8.93;100.00
26087;BME280;13851;43.434;28.338;2022-12-05T10:36:29;101218.06;;;8.95;100.00
26087;BME280;13851;43.434;28.338;2022-12-05T10:38:55;101222.81;;;8.93;100.00
26087;BME280;13851;43.434;28.338;2022-12-05T10:41:21;101161.56;;;8.65;100.00
26087;BME280;13851;43.434;28.338;2022-12-05T10:43:47;101205.56;;;8.92;100.00
26087;BME280;13851;43.434;28.338;2022-12-05T10:46:15;101193.31;;;8.87;100.00
26087;BME280;13851;43.434;28.338;2022-12-05T10:48:41;101214.66;;;9.02;100.00
26087;BME280;13851;43.434;28.338;2022-12-05T10:51:12;101150.97;;;8.71;100.00
26087;BME280;13851;43.434;28.338;2022-12-05T10:57:05;101209.22;;;9.12;100.00
26087;BME280;13851;43.434;28.338;2022-12-05T10:59:18;101206.03;;;9.07;100.00
26087;BME280;13851;43.434;28.338;2022-12-05T11:01:47;101195.94;;;8.98;100.00
26087;BME280;13851;43.434;28.338;2022-12-05T11:07:04;101209.78;;;9.06;100.00
26087;BME280;13851;43.434;28.338;2022-12-05T11:09:37;101150.25;;;8.79;100.00
26087;BME280;13851;43.434;28.338;2022-12-05T11:14:29;101176.47;;;8.81;100.00
26087;BME280;13851;43.434;28.338;2022-12-05T11:16:58;101189.00;;;8.94;100.00
26087;BME280;13851;43.434;28.338;2022-12-05T11:19:37;101193.88;;;8.90;100.00
26087;BME280;13851;43.434;28.338;2022-12-05T11:22:06;101105.47;;;8.51;100.00
26087;BME280;13851;43.434;28.338;2022-12-05T11:24:34;101073.47;;;8.32;100.00
26087;BME280;13851;43.434;28.338;2022-12-05T11:32:37;101152.09;;;8.69;100.00
26087;BME280;13851;43.434;28.338;2022-12-05T11:37:56;101160.19;;;8.70;100.00
26087;BME280;13851;43.434;28.338;2022-12-05T11:48:27;101168.09;;;8.73;100.00
26087;BME280;13851;43.434;28.338;2022-12-05T11:57:13;100902.16;;;7.34;100.00
26087;BME280;13851;43.434;28.338;2022-12-05T12:08:18;101155.38;;;9.03;100.00
26087;BME280;13851;43.434;28.338;2022-12-05T12:30:18;101071.34;;;8.76;100.00
26087;BME280;13851;43.434;28.338;2022-12-05T12:32:58;100878.44;;;7.55;100.00
26087;BME280;13851;43.434;28.338;2022-12-05T12:35:26;101127.19;;;9.12;100.00
26087;BME280;13851;43.434;28.338;2022-12-05T12:43:58;101110.91;;;8.91;100.00
26087;BME280;13851;43.434;28.338;2022-12-05T12:46:51;101083.56;;;8.81;100.00
26087;BME280;13851;43.434;28.338;2022-12-05T12:49:38;100933.41;;;7.91;100.00
26087;BME280;13851;43.434;28.338;2022-12-05T12:52:17;101128.22;;;9.11;100.00
26087;BME280;13851;43.434;28.338;2022-12-05T12:57:44;100869.81;;;7.50;100.00
26087;BME280;13851;43.434;28.338;2022-12-05T13:00:31;101133.25;;;9.06;100.00
26087;BME280;13851;43.434;28.338;2022-12-05T13:06:12;101115.53;;;8.91;100.00
26087;BME280;13851;43.434;28.338;2022-12-05T13:08:45;101098.09;;;8.82;100.00
26087;BME280;13851;43.434;28.338;2022-12-05T13:11:14;101097.50;;;8.78;100.00
26087;BME280;13851;43.434;28.338;2022-12-05T13:13:49;100870.56;;;7.52;100.00
26087;BME280;13851;43.434;28.338;2022-12-05T13:16:27;101056.31;;;8.51;100.00
26087;BME280;13851;43.434;28.338;2022-12-05T13:18:55;101114.19;;;8.95;100.00
26087;BME280;13851;43.434;28.338;2022-12-05T13:21:22;101085.13;;;8.84;100.00
26087;BME280;13851;43.434;28.338;2022-12-05T13:23:51;101124.03;;;9.07;100.00
26087;BME280;13851;43.434;28.338;2022-12-05T13:26:17;101135.41;;;9.12;100.00
26087;BME280;13851;43.434;28.338;2022-12-05T13:28:52;101125.59;;;9.09;100.00
26087;BME280;13851;43.434;28.338;2022-12-05T13:31:37;101128.19;;;9.01;100.00
26087;BME280;13851;43.434;28.338;2022-12-05T13:34:03;101109.31;;;8.89;100.00
26087;BME280;13851;43.434;28.338;2022-12-05T13:36:38;100844.38;;;7.40;100.00
26087;BME280;13851;43.434;28.338;2022-12-05T13:39:24;100893.13;;;7.64;100.00
26087;BME280;13851;43.434;28.338;2022-12-05T13:42:27;101135.81;;;8.98;100.00
26087;BME280;13851;43.434;28.338;2022-12-05T13:45:05;101116.81;;;8.96;100.00
26087;BME280;13851;43.434;28.338;2022-12-05T13:47:39;101135.66;;;9.09;100.00
26087;BME280;13851;43.434;28.338;2022-12-05T13:50:17;101132.88;;;8.90;100.00
26087;BME280;13851;43.434;28.338;2022-12-05T13:52:51;101139.84;;;9.13;100.00
26087;BME280;13851;43.434;28.338;2022-12-05T13:55:55;101137.84;;;9.15;100.00
26087;BME280;13851;43.434;28.338;2022-12-05T14:00:46;100942.03;;;7.96;100.00
26087;BME280;13851;43.434;28.338;2022-12-05T14:05:50;101118.81;;;9.04;100.00
26087;BME280;13851;43.434;28.338;2022-12-05T14:16:39;101133.25;;;9.06;100.00
26087;BME280;13851;43.434;28.338;2022-12-05T14:19:27;101132.06;;;8.99;100.00
26087;BME280;13851;43.434;28.338;2022-12-05T14:24:53;101143.59;;;9.02;100.00
26087;BME280;13851;43.434;28.338;2022-12-05T14:27:53;101140.69;;;9.04;100.00
26087;BME280;13851;43.434;28.338;2022-12-05T14:30:22;101158.09;;;9.03;100.00
26087;BME280;13851;43.434;28.338;2022-12-05T14:32:50;100889.94;;;7.59;100.00
26087;BME280;13851;43.434;28.338;2022-12-05T14:37:55;101139.69;;;9.05;100.00
26087;BME280;13851;43.434;28.338;2022-12-05T14:40:45;101135.81;;;9.07;100.00
26087;BME280;13851;43.434;28.338;2022-12-05T14:43:29;101052.59;;;8.62;100.00
26087;BME280;13851;43.434;28.338;2022-12-05T14:46:03;101133.06;;;8.98;100.00
26087;BME280;13851;43.434;28.338;2022-12-05T14:48:33;101135.22;;;8.94;100.00
26087;BME280;13851;43.434;28.338;2022-12-05T14:51:01;101127.44;;;8.90;100.00
26087;BME280;13851;43.434;28.338;2022-12-05T14:53:47;101099.47;;;8.67;100.00
26087;BME280;13851;43.434;28.338;2022-12-05T14:56:22;101121.53;;;8.84;100.00
26087;BME280;13851;43.434;28.338;2022-12-05T14:59:00;101129.88;;;8.93;100.00
26087;BME280;13851;43.434;28.338;2022-12-05T15:01:53;101117.38;;;8.80;100.00
26087;BME280;13851;43.434;28.338;2022-12-05T15:07:32;101129.75;;;8.94;100.00
26087;BME280;13851;43.434;28.338;2022-12-05T15:12:53;101081.34;;;8.56;100.00
26087;BME280;13851;43.434;28.338;2022-12-05T15:17:56;101081.00;;;8.49;100.00
26087;BME280;13851;43.434;28.338;2022-12-05T15:20:45;101132.56;;;8.73;100.00
26087;BME280;13851;43.434;28.338;2022-12-05T15:31:50;101049.84;;;8.21;100.00
26087;BME280;13851;43.434;28.338;2022-12-05T15:37:16;101128.66;;;8.66;100.00
26087;BME280;13851;43.434;28.338;2022-12-05T15:40:07;101125.34;;;8.63;100.00
26087;BME280;13851;43.434;28.338;2022-12-05T15:42:41;101133.53;;;8.63;100.00
26087;BME280;13851;43.434;28.338;2022-12-05T15:47:47;101105.13;;;8.44;100.00
26087;BME280;13851;43.434;28.338;2022-12-05T15:52:49;101169.28;;;8.50;100.00